createdAt,value
2023-02-13T00:00:25.472Z,7.78
2023-02-13T00:02:47.152Z,7.65
2023-02-13T00:05:08.658Z,7.63
2023-02-13T00:07:30.084Z,7.65
2023-02-13T00:09:51.529Z,7.65
2023-02-13T00:12:12.951Z,7.70
2023-02-13T00:14:39.381Z,7.68
2023-02-13T00:17:00.874Z,7.65
2023-02-13T00:19:22.370Z,7.69
2023-02-13T00:21:43.852Z,7.71
2023-02-13T00:24:05.773Z,7.83
2023-02-13T00:26:27.253Z,7.52
2023-02-13T00:28:48.895Z,7.56
2023-02-13T00:31:13.083Z,7.55
2023-02-13T00:33:34.928Z,7.60
2023-02-13T00:36:06.556Z,7.53
2023-02-13T00:38:30.083Z,7.75
2023-02-13T00:40:51.524Z,7.78
2023-02-13T00:43:12.927Z,7.77
2023-02-13T00:45:34.362Z,7.64
2023-02-13T00:47:55.861Z,7.71
2023-02-13T00:50:17.446Z,7.72
2023-02-13T00:52:39.229Z,7.66
2023-02-13T00:55:00.727Z,7.68
2023-02-13T00:57:22.255Z,7.68
2023-02-13T00:59:43.712Z,7.69
2023-02-13T01:02:05.234Z,7.66
2023-02-13T01:04:26.699Z,7.67
2023-02-13T01:06:48.130Z,7.49
2023-02-13T01:09:09.639Z,7.55
2023-02-13T01:11:31.159Z,7.61
2023-02-13T01:13:52.638Z,7.58
2023-02-13T01:16:16.034Z,7.63
2023-02-13T01:18:37.589Z,7.59
2023-02-13T01:21:02.880Z,7.61
2023-02-13T01:23:24.522Z,7.69
2023-02-13T01:25:46.002Z,7.70
2023-02-13T01:28:07.541Z,7.75
2023-02-13T01:30:28.995Z,7.68
2023-02-13T01:32:50.466Z,7.72
2023-02-13T01:35:13.353Z,7.79
2023-02-13T01:37:34.826Z,7.77
2023-02-13T01:39:56.439Z,7.78
2023-02-13T01:42:25.124Z,7.83
2023-02-13T01:45:09.553Z,7.73
2023-02-13T01:47:47.405Z,7.75
2023-02-13T01:50:28.784Z,7.70
2023-02-13T01:53:05.053Z,7.62
2023-02-13T01:55:27.965Z,7.59
2023-02-13T01:57:57.623Z,7.61
2023-02-13T02:00:19.587Z,7.65
2023-02-13T02:02:46.814Z,7.64
2023-02-13T02:05:09.050Z,7.63
2023-02-13T02:07:31.794Z,7.62
2023-02-13T02:09:58.652Z,7.41
2023-02-13T02:12:42.237Z,7.47
2023-02-13T02:15:06.267Z,7.55
2023-02-13T02:17:28.130Z,7.61
2023-02-13T02:20:12.752Z,7.56
2023-02-13T02:22:58.256Z,7.45
2023-02-13T02:25:43.912Z,7.27
2023-02-13T02:28:29.970Z,7.20
2023-02-13T02:31:38.789Z,7.35
2023-02-13T02:34:19.120Z,7.33
2023-02-13T02:36:52.427Z,7.22
2023-02-13T02:39:49.386Z,7.12
2023-02-13T02:42:25.724Z,7.18
2023-02-13T02:45:13.044Z,7.33
2023-02-13T02:48:08.425Z,7.28
2023-02-13T02:50:46.368Z,7.24
2023-02-13T02:53:10.800Z,7.37
2023-02-13T02:55:41.491Z,7.32
2023-02-13T02:58:36.752Z,7.22
2023-02-13T03:01:19.339Z,7.29
2023-02-13T03:03:59.522Z,7.35
2023-02-13T03:06:29.996Z,7.33
2023-02-13T03:09:16.233Z,7.38
2023-02-13T03:11:57.770Z,7.47
2023-02-13T03:14:20.889Z,7.40
2023-02-13T03:17:01.231Z,7.40
2023-02-13T03:20:02.267Z,7.39
2023-02-13T03:22:55.990Z,7.40
2023-02-13T03:25:37.412Z,7.47
2023-02-13T03:28:20.038Z,7.46
2023-02-13T03:30:51.526Z,7.49
2023-02-13T03:33:18.912Z,7.47
2023-02-13T03:36:26.456Z,7.47
2023-02-13T03:38:54.384Z,7.45
2023-02-13T03:41:27.795Z,7.24
2023-02-13T03:43:58.265Z,7.32
2023-02-13T03:46:20.679Z,7.36
2023-02-13T03:49:02.073Z,7.39
2023-02-13T03:51:36.605Z,7.41
2023-02-13T03:54:02.397Z,7.47
2023-02-13T03:56:44.968Z,7.49
2023-02-13T03:59:16.321Z,7.44
2023-02-13T04:01:39.377Z,7.41
2023-02-13T04:04:09.865Z,7.35
2023-02-13T04:06:43.960Z,7.38
2023-02-13T04:09:05.432Z,7.37
2023-02-13T04:11:45.532Z,7.26
2023-02-13T04:14:22.766Z,7.11
2023-02-13T04:16:49.446Z,7.16
2023-02-13T04:19:11.896Z,7.22
2023-02-13T04:21:38.685Z,7.24
2023-02-13T04:24:00.128Z,7.17
2023-02-13T04:26:23.543Z,7.24
2023-02-13T04:28:45.344Z,7.27
2023-02-13T04:31:06.921Z,7.22
2023-02-13T04:33:28.486Z,7.30
2023-02-13T04:35:49.920Z,7.37
2023-02-13T04:38:11.419Z,7.41
2023-02-13T04:40:33.173Z,7.41
2023-02-13T04:42:54.732Z,7.41
2023-02-13T04:45:17.485Z,7.40
2023-02-13T04:47:38.955Z,7.41
2023-02-13T04:50:00.434Z,7.40
2023-02-13T04:52:21.944Z,7.42
2023-02-13T04:54:43.380Z,7.44
2023-02-13T04:57:04.859Z,7.45
2023-02-13T04:59:26.365Z,7.48
2023-02-13T05:01:47.856Z,7.48
2023-02-13T05:04:11.213Z,7.49
2023-02-13T05:06:32.744Z,7.39
2023-02-13T05:08:54.208Z,7.30
2023-02-13T05:11:15.669Z,7.39
2023-02-13T05:13:37.147Z,7.39
2023-02-13T05:15:58.681Z,7.27
2023-02-13T05:18:20.328Z,7.15
2023-02-13T05:20:41.970Z,7.14
2023-02-13T05:23:22.016Z,7.20
2023-02-13T05:25:43.490Z,7.19
2023-02-13T05:28:05.634Z,7.18
2023-02-13T05:30:27.273Z,7.14
2023-02-13T05:32:50.845Z,7.18
2023-02-13T05:35:12.299Z,7.25
2023-02-13T05:37:33.775Z,7.25
2023-02-13T05:39:55.191Z,7.26
2023-02-13T05:42:16.664Z,7.04
2023-02-13T05:44:38.164Z,6.92
2023-02-13T05:46:59.778Z,7.03
2023-02-13T05:49:21.239Z,6.99
2023-02-13T05:51:43.492Z,7.03
2023-02-13T05:54:05.060Z,7.08
2023-02-13T05:56:26.663Z,7.15
2023-02-13T05:58:51.096Z,7.18
2023-02-13T06:01:12.695Z,7.22
2023-02-13T06:03:34.313Z,7.26
2023-02-13T06:05:56.193Z,7.28
2023-02-13T06:08:17.720Z,7.28
2023-02-13T06:10:39.146Z,7.00
2023-02-13T06:13:00.761Z,7.05
2023-02-13T06:15:22.178Z,7.08
2023-02-13T06:17:43.644Z,7.12
2023-02-13T06:20:06.711Z,7.15
2023-02-13T06:22:28.150Z,7.20
2023-02-13T06:24:49.636Z,7.18
2023-02-13T06:27:11.101Z,7.21
2023-02-13T06:29:33.006Z,7.24
2023-02-13T06:31:54.491Z,7.25
2023-02-13T06:34:15.958Z,6.96
2023-02-13T06:36:38.451Z,7.07
2023-02-13T06:39:00.131Z,7.10
2023-02-13T06:41:21.570Z,6.91
2023-02-13T06:43:43.197Z,7.04
2023-02-13T06:46:06.114Z,7.09
2023-02-13T06:48:27.570Z,7.09
2023-02-13T06:50:49.046Z,7.06
2023-02-13T06:53:10.670Z,7.03
2023-02-13T06:55:32.169Z,7.12
2023-02-13T06:57:53.649Z,7.01
2023-02-13T07:00:16.673Z,7.08
2023-02-13T07:02:38.164Z,7.12
2023-02-13T07:04:59.639Z,7.20
2023-02-13T07:07:21.076Z,7.28
2023-02-13T07:09:42.578Z,7.30
2023-02-13T07:12:04.852Z,7.29
2023-02-13T07:14:26.316Z,7.31
2023-02-13T07:16:47.800Z,7.42
2023-02-13T07:19:09.299Z,7.41
2023-02-13T07:21:30.771Z,7.44
2023-02-13T07:23:52.772Z,7.51
2023-02-13T07:26:14.229Z,7.37
2023-02-13T07:28:35.750Z,7.30
2023-02-13T07:30:57.877Z,7.49
2023-02-13T07:33:19.630Z,7.50
2023-02-13T07:35:46.851Z,7.54
2023-02-13T07:38:10.928Z,7.48
2023-02-13T07:40:32.430Z,7.42
2023-02-13T07:42:53.858Z,7.51
2023-02-13T07:45:16.140Z,7.56
2023-02-13T07:47:37.707Z,7.65
2023-02-13T07:49:59.161Z,7.85
2023-02-13T07:52:20.633Z,7.91
2023-02-13T07:54:47.515Z,7.82
2023-02-13T07:57:09.277Z,7.87
2023-02-13T07:59:30.735Z,7.86
2023-02-13T08:01:52.194Z,7.88
2023-02-13T08:04:13.685Z,8.06
2023-02-13T08:06:35.149Z,8.21
2023-02-13T08:09:15.049Z,8.17
2023-02-13T08:11:54.921Z,8.35
2023-02-13T08:14:16.390Z,8.00
2023-02-13T08:16:37.869Z,8.20
2023-02-13T08:18:59.346Z,8.30
2023-02-13T08:21:20.797Z,8.70
2023-02-13T08:23:42.303Z,8.77
2023-02-13T08:26:03.968Z,8.71
2023-02-13T08:28:25.479Z,8.97
2023-02-13T08:30:46.999Z,9.07
2023-02-13T08:33:08.527Z,9.14
2023-02-13T08:35:31.647Z,9.33
2023-02-13T08:37:54.093Z,9.61
2023-02-13T08:40:15.680Z,9.70
2023-02-13T08:42:37.854Z,9.66
2023-02-13T08:44:59.725Z,9.69
2023-02-13T08:47:21.167Z,9.58
2023-02-13T08:49:43.089Z,9.54
2023-02-13T08:52:05.739Z,9.72
2023-02-13T08:54:30.642Z,9.38
2023-02-13T08:56:52.106Z,9.63
2023-02-13T08:59:13.590Z,9.80
2023-02-13T09:01:35.011Z,9.95
2023-02-13T09:03:56.512Z,9.97
2023-02-13T09:06:18.089Z,10.04
2023-02-13T09:08:39.532Z,10.11
2023-02-13T09:11:03.399Z,10.31
2023-02-13T09:13:25.203Z,10.36
2023-02-13T09:15:46.650Z,10.37
2023-02-13T09:18:08.436Z,10.28
2023-02-13T09:20:29.884Z,10.18
2023-02-13T09:22:51.630Z,10.18
2023-02-13T09:25:13.091Z,10.46
2023-02-13T09:27:35.788Z,10.56
2023-02-13T09:29:57.243Z,10.41
2023-02-13T09:32:19.432Z,10.44
2023-02-13T09:34:40.883Z,10.49
2023-02-13T09:37:02.315Z,10.50
2023-02-13T09:39:23.936Z,10.74
2023-02-13T09:41:49.355Z,10.82
2023-02-13T09:44:35.239Z,10.86
2023-02-13T09:46:57.397Z,11.26
2023-02-13T09:49:30.515Z,11.07
2023-02-13T09:51:56.485Z,11.34
2023-02-13T09:54:20.626Z,11.19
2023-02-13T09:56:54.976Z,11.14
2023-02-13T09:59:35.410Z,11.29
2023-02-13T10:02:01.345Z,11.24
2023-02-13T10:04:34.898Z,11.54
2023-02-13T10:07:13.125Z,11.43
2023-02-13T10:09:52.258Z,11.30
2023-02-13T10:12:43.368Z,11.68
2023-02-13T10:15:42.211Z,11.40
2023-02-13T10:18:11.102Z,11.35
2023-02-13T10:20:39.645Z,10.91
2023-02-13T10:23:21.328Z,10.76
2023-02-13T10:25:52.025Z,10.92
2023-02-13T10:28:23.538Z,11.06
2023-02-13T10:30:58.752Z,11.34
2023-02-13T10:33:32.053Z,11.64
2023-02-13T10:36:12.586Z,11.62
2023-02-13T10:38:39.986Z,11.55
2023-02-13T10:41:25.243Z,11.70
2023-02-13T10:44:06.641Z,11.46
2023-02-13T10:46:44.019Z,11.50
2023-02-13T10:49:27.836Z,11.30
2023-02-13T10:52:00.639Z,11.18
2023-02-13T10:55:00.434Z,11.07
2023-02-13T10:57:38.861Z,10.72
2023-02-13T11:00:05.980Z,10.62
2023-02-13T11:02:30.559Z,10.66
2023-02-13T11:05:01.303Z,10.49
2023-02-13T11:07:25.072Z,10.63
2023-02-13T11:09:49.446Z,10.75
2023-02-13T11:12:32.153Z,10.81
2023-02-13T11:14:56.634Z,10.95
2023-02-13T11:17:19.201Z,11.13
2023-02-13T11:19:53.914Z,10.94
2023-02-13T11:22:28.282Z,11.06
2023-02-13T11:24:54.641Z,11.23
2023-02-13T11:27:16.330Z,11.32
2023-02-13T11:29:51.085Z,11.26
2023-02-13T11:32:15.483Z,11.31
2023-02-13T11:34:37.009Z,11.45
2023-02-13T11:37:13.430Z,11.53
2023-02-13T11:39:34.872Z,11.87
2023-02-13T11:41:56.381Z,11.90
2023-02-13T11:44:38.127Z,12.13
2023-02-13T11:47:02.239Z,12.18
2023-02-13T11:49:26.618Z,11.97
2023-02-13T11:51:54.123Z,12.04
2023-02-13T11:54:33.737Z,12.29
2023-02-13T11:57:04.669Z,12.47
2023-02-13T11:59:32.383Z,12.69
2023-02-13T12:02:12.282Z,12.74
2023-02-13T12:04:33.700Z,12.51
2023-02-13T12:06:59.828Z,12.43
2023-02-13T12:09:21.279Z,12.32
2023-02-13T12:11:49.611Z,12.09
2023-02-13T12:14:16.584Z,11.99
2023-02-13T12:17:09.579Z,12.26
2023-02-13T12:19:42.310Z,12.16
2023-02-13T12:22:28.658Z,12.08
2023-02-13T12:25:26.480Z,12.01
2023-02-13T12:28:11.706Z,12.01
2023-02-13T12:30:59.523Z,11.71
2023-02-13T12:33:43.754Z,11.80
2023-02-13T12:36:30.038Z,11.78
2023-02-13T12:38:57.518Z,11.85
2023-02-13T12:41:22.784Z,11.95
2023-02-13T12:43:56.362Z,12.16
2023-02-13T12:46:26.598Z,11.77
2023-02-13T12:48:54.080Z,11.82
2023-02-13T12:51:21.329Z,11.72
2023-02-13T12:53:58.272Z,11.82
2023-02-13T12:56:22.467Z,11.46
2023-02-13T12:58:52.807Z,11.45
2023-02-13T13:01:32.964Z,11.38
2023-02-13T13:04:22.595Z,11.09
2023-02-13T13:06:57.002Z,10.93
2023-02-13T13:09:37.242Z,10.96
2023-02-13T13:12:10.620Z,10.82
2023-02-13T13:14:41.267Z,11.01
2023-02-13T13:17:40.879Z,11.14
2023-02-13T13:20:14.389Z,11.24
2023-02-13T13:22:53.577Z,11.39
2023-02-13T13:25:38.312Z,11.38
2023-02-13T13:28:07.860Z,11.16
2023-02-13T13:30:35.528Z,11.42
2023-02-13T13:33:08.487Z,11.36
2023-02-13T13:35:31.348Z,11.53
2023-02-13T13:38:06.627Z,11.77
2023-02-13T13:40:39.901Z,11.81
2023-02-13T13:43:20.444Z,11.60
2023-02-13T13:46:11.469Z,11.64
2023-02-13T13:49:26.269Z,11.44
2023-02-13T13:51:47.742Z,11.48
2023-02-13T13:54:09.119Z,11.63
2023-02-13T13:57:02.153Z,11.36
2023-02-13T13:59:51.522Z,11.47
2023-02-13T14:02:19.333Z,11.49
2023-02-13T14:04:43.541Z,11.43
2023-02-13T14:07:04.968Z,11.49
2023-02-13T14:09:26.321Z,11.30
2023-02-13T14:11:47.815Z,11.48
2023-02-13T14:14:27.607Z,11.52
2023-02-13T14:16:49.317Z,11.35
2023-02-13T14:19:31.147Z,11.46
2023-02-13T14:21:54.674Z,11.60
2023-02-13T14:24:19.598Z,11.61
2023-02-13T14:26:41.498Z,11.75
2023-02-13T14:29:23.281Z,11.71
2023-02-13T14:31:59.597Z,11.98
2023-02-13T14:34:30.662Z,11.92
2023-02-13T14:37:31.210Z,12.00
2023-02-13T14:40:13.181Z,11.97
2023-02-13T14:42:36.031Z,12.01
2023-02-13T14:44:59.943Z,11.92
2023-02-13T14:47:36.032Z,11.80
2023-02-13T14:50:01.583Z,11.30
2023-02-13T14:52:28.954Z,11.15
2023-02-13T14:54:54.151Z,11.25
2023-02-13T14:57:24.806Z,11.14
2023-02-13T14:59:53.140Z,11.09
2023-02-13T15:02:26.516Z,11.16
2023-02-13T15:04:55.345Z,11.19
2023-02-13T15:07:23.392Z,11.25
2023-02-13T15:09:51.783Z,11.14
2023-02-13T15:12:27.913Z,11.43
2023-02-13T15:14:49.336Z,11.07
2023-02-13T15:17:19.080Z,11.11
2023-02-13T15:19:45.557Z,10.71
2023-02-13T15:22:07.414Z,10.49
2023-02-13T15:24:38.212Z,10.05
2023-02-13T15:27:02.819Z,9.88
2023-02-13T15:29:35.304Z,9.80
2023-02-13T15:31:59.740Z,9.55
2023-02-13T15:34:28.922Z,9.46
2023-02-13T15:36:51.023Z,9.41
2023-02-13T15:39:18.645Z,9.29
2023-02-13T15:41:52.482Z,9.16
2023-02-13T15:44:20.680Z,9.21
2023-02-13T15:46:42.327Z,9.16
2023-02-13T15:49:16.706Z,9.08
2023-02-13T15:51:38.492Z,9.34
2023-02-13T15:54:06.325Z,9.26
2023-02-13T15:56:29.126Z,9.10
2023-02-13T15:58:52.541Z,9.37
2023-02-13T16:01:14.638Z,9.12
2023-02-13T16:03:36.913Z,9.15
2023-02-13T16:05:58.784Z,8.98
2023-02-13T16:08:32.265Z,8.81
2023-02-13T16:11:16.302Z,8.87
2023-02-13T16:13:37.909Z,9.01
2023-02-13T16:16:02.197Z,9.00
2023-02-13T16:18:23.763Z,9.14
2023-02-13T16:20:45.587Z,9.15
2023-02-13T16:23:16.262Z,9.19
2023-02-13T16:25:40.277Z,9.09
2023-02-13T16:28:18.403Z,9.01
2023-02-13T16:30:43.206Z,8.79
2023-02-13T16:33:16.717Z,8.75
2023-02-13T16:35:40.808Z,8.60
2023-02-13T16:38:03.112Z,8.37
2023-02-13T16:40:27.561Z,8.52
2023-02-13T16:42:49.005Z,8.46
2023-02-13T16:45:24.136Z,8.49
2023-02-13T16:47:45.712Z,8.41
2023-02-13T16:50:15.166Z,8.42
2023-02-13T16:52:36.642Z,8.36
2023-02-13T16:55:06.321Z,8.32
2023-02-13T16:57:30.807Z,7.80
2023-02-13T17:00:24.452Z,7.95
2023-02-13T17:02:48.445Z,7.96
2023-02-13T17:05:09.937Z,7.97
2023-02-13T17:07:34.518Z,7.97
2023-02-13T17:10:05.016Z,7.97
2023-02-13T17:12:28.315Z,7.82
2023-02-13T17:14:49.804Z,7.79
2023-02-13T17:17:16.709Z,7.73
2023-02-13T17:19:38.184Z,7.71
2023-02-13T17:21:59.630Z,7.62
2023-02-13T17:24:21.148Z,7.51
2023-02-13T17:26:42.605Z,7.39
2023-02-13T17:29:04.049Z,7.25
2023-02-13T17:31:25.594Z,7.32
2023-02-13T17:33:47.177Z,7.37
2023-02-13T17:36:12.585Z,7.30
2023-02-13T17:38:34.000Z,7.31
2023-02-13T17:40:55.626Z,7.28
2023-02-13T17:43:18.701Z,7.33
2023-02-13T17:45:40.761Z,7.17
2023-02-13T17:48:02.218Z,7.14
2023-02-13T17:50:25.229Z,6.86
2023-02-13T17:52:49.068Z,6.83
2023-02-13T17:55:21.223Z,6.84
2023-02-13T17:57:42.930Z,6.84
2023-02-13T18:00:05.026Z,6.71
2023-02-13T18:02:27.814Z,6.52
2023-02-13T18:04:50.052Z,6.57
2023-02-13T18:07:13.465Z,6.59
2023-02-13T18:09:34.953Z,6.55
2023-02-13T18:12:05.028Z,6.51
2023-02-13T18:14:30.077Z,6.43
2023-02-13T18:16:51.489Z,6.34
2023-02-13T18:19:13.997Z,6.39
2023-02-13T18:21:35.450Z,6.30
2023-02-13T18:23:57.033Z,6.25
2023-02-13T18:26:18.506Z,6.27
2023-02-13T18:28:39.925Z,6.24
2023-02-13T18:31:02.054Z,6.16
2023-02-13T18:33:23.731Z,6.11
2023-02-13T18:35:45.150Z,6.08
2023-02-13T18:38:06.577Z,5.92
2023-02-13T18:40:28.117Z,5.85
2023-02-13T18:42:51.062Z,5.80
2023-02-13T18:45:12.722Z,5.74
2023-02-13T18:47:34.132Z,5.70
2023-02-13T18:49:55.646Z,5.76
2023-02-13T18:52:17.081Z,5.73
2023-02-13T18:54:38.754Z,5.74
2023-02-13T18:57:00.203Z,5.72
2023-02-13T18:59:23.054Z,5.46
2023-02-13T19:01:44.987Z,5.50
2023-02-13T19:04:06.791Z,5.50
2023-02-13T19:06:28.379Z,5.43
2023-02-13T19:08:50.212Z,5.34
2023-02-13T19:11:17.525Z,5.32
2023-02-13T19:13:38.954Z,5.36
2023-02-13T19:16:11.733Z,5.21
2023-02-13T19:18:36.790Z,5.21
2023-02-13T19:21:03.063Z,5.19
2023-02-13T19:23:24.485Z,5.19
2023-02-13T19:25:45.926Z,5.13
2023-02-13T19:28:07.340Z,5.06
2023-02-13T19:30:28.873Z,5.05
2023-02-13T19:32:50.295Z,5.06
2023-02-13T19:35:11.716Z,4.79
2023-02-13T19:37:43.051Z,4.85
2023-02-13T19:40:05.901Z,4.92
2023-02-13T19:42:27.360Z,4.99
2023-02-13T19:44:48.844Z,4.92
2023-02-13T19:47:10.372Z,4.96
2023-02-13T19:49:31.799Z,4.99
2023-02-13T19:51:53.243Z,4.95
2023-02-13T19:54:14.757Z,4.93
2023-02-13T19:56:38.726Z,4.91
2023-02-13T19:59:00.154Z,4.84
2023-02-13T20:01:24.017Z,4.81
2023-02-13T20:03:45.540Z,4.77
2023-02-13T20:06:12.808Z,4.78
2023-02-13T20:08:34.704Z,4.70
2023-02-13T20:10:56.400Z,4.70
2023-02-13T20:13:18.204Z,4.61
2023-02-13T20:15:40.967Z,4.61
2023-02-13T20:18:02.448Z,4.67
2023-02-13T20:20:23.869Z,4.75
2023-02-13T20:22:47.766Z,4.62
2023-02-13T20:25:09.206Z,4.65
2023-02-13T20:27:30.657Z,4.51
2023-02-13T20:29:58.895Z,4.43
2023-02-13T20:32:28.067Z,4.44
2023-02-13T20:34:59.423Z,4.31
2023-02-13T20:37:21.387Z,4.06
2023-02-13T20:39:43.972Z,4.00
2023-02-13T20:42:05.561Z,4.05
2023-02-13T20:44:28.169Z,4.06
2023-02-13T20:46:51.004Z,3.93
2023-02-13T20:49:18.723Z,4.08
2023-02-13T20:51:40.192Z,4.12
2023-02-13T20:54:02.269Z,4.18
2023-02-13T20:56:25.929Z,4.23
2023-02-13T20:58:49.182Z,4.20
2023-02-13T21:01:13.513Z,4.25
2023-02-13T21:03:35.000Z,4.24
2023-02-13T21:05:56.458Z,4.21
2023-02-13T21:08:18.313Z,4.15
2023-02-13T21:10:39.737Z,4.16
2023-02-13T21:13:01.155Z,4.11
2023-02-13T21:15:22.595Z,4.14
2023-02-13T21:17:44.277Z,4.17
2023-02-13T21:20:06.418Z,4.16
2023-02-13T21:22:27.865Z,4.18
2023-02-13T21:24:49.770Z,4.20
2023-02-13T21:27:11.350Z,4.15
2023-02-13T21:29:33.096Z,4.13
2023-02-13T21:31:54.583Z,4.17
2023-02-13T21:34:17.322Z,4.19
2023-02-13T21:36:39.450Z,4.13
2023-02-13T21:39:01.163Z,4.07
2023-02-13T21:41:22.862Z,4.08
2023-02-13T21:43:47.991Z,4.12
2023-02-13T21:46:11.831Z,4.13
2023-02-13T21:48:33.523Z,4.11
2023-02-13T21:50:54.958Z,4.02
2023-02-13T21:53:16.393Z,4.04
2023-02-13T21:55:37.814Z,4.08
2023-02-13T21:57:59.227Z,3.88
2023-02-13T22:00:20.844Z,3.87
2023-02-13T22:02:42.350Z,3.88
2023-02-13T22:05:04.165Z,3.82
2023-02-13T22:07:25.607Z,3.84
2023-02-13T22:09:49.970Z,3.87
2023-02-13T22:12:11.467Z,3.96
2023-02-13T22:14:32.925Z,3.79
2023-02-13T22:16:54.417Z,3.66
2023-02-13T22:19:16.190Z,3.67
2023-02-13T22:21:37.635Z,3.29
2023-02-13T22:23:59.207Z,3.40
2023-02-13T22:26:24.186Z,3.55
2023-02-13T22:28:46.007Z,3.58
2023-02-13T22:31:09.007Z,3.63
2023-02-13T22:33:30.587Z,3.40
2023-02-13T22:35:52.332Z,3.56
2023-02-13T22:38:13.865Z,3.56
2023-02-13T22:40:36.080Z,3.64
2023-02-13T22:42:57.535Z,3.56
2023-02-13T22:45:18.961Z,3.44
2023-02-13T22:47:40.449Z,3.36
2023-02-13T22:50:01.864Z,3.42
2023-02-13T22:52:23.327Z,3.20
2023-02-13T22:54:44.722Z,3.24
2023-02-13T22:57:06.485Z,3.29
2023-02-13T22:59:28.356Z,3.41
2023-02-13T23:01:49.890Z,3.26
2023-02-13T23:04:12.581Z,3.31
2023-02-13T23:06:34.084Z,3.43
2023-02-13T23:08:56.017Z,3.49
2023-02-13T23:11:36.727Z,3.55
2023-02-13T23:13:58.221Z,3.57
2023-02-13T23:16:20.014Z,3.66
2023-02-13T23:18:41.504Z,3.52
2023-02-13T23:21:07.731Z,3.25
2023-02-13T23:23:29.297Z,3.23
2023-02-13T23:25:50.742Z,3.17
2023-02-13T23:28:12.198Z,3.17
2023-02-13T23:30:34.616Z,3.34
2023-02-13T23:32:57.445Z,3.42
2023-02-13T23:35:19.012Z,3.51
2023-02-13T23:37:40.534Z,3.32
2023-02-13T23:40:02.196Z,3.35
2023-02-13T23:42:23.705Z,3.25
2023-02-13T23:44:45.187Z,3.33
2023-02-13T23:47:06.793Z,3.35
2023-02-13T23:49:28.257Z,3.26
2023-02-13T23:51:49.810Z,3.32
2023-02-13T23:54:20.481Z,3.37
2023-02-13T23:56:42.269Z,3.22
2023-02-13T23:59:03.859Z,3.18
